sensor_id;sensor_type;location;lat;lon;timestamp;P1;durP1;ratioP1;P2;durP2;ratioP2
17618;SDS011;8928;51.678;6.074;2022-08-11T00:01:57;5.23;;;2.00;;
17618;SDS011;8928;51.678;6.074;2022-08-11T00:04:45;4.23;;;2.40;;
17618;SDS011;8928;51.678;6.074;2022-08-11T00:07:39;4.73;;;2.00;;
17618;SDS011;8928;51.678;6.074;2022-08-11T00:10:29;7.03;;;2.50;;
17618;SDS011;8928;51.678;6.074;2022-08-11T00:13:17;5.33;;;2.20;;
17618;SDS011;8928;51.678;6.074;2022-08-11T00:16:10;5.37;;;2.50;;
17618;SDS011;8928;51.678;6.074;2022-08-11T00:18:59;5.57;;;2.20;;
17618;SDS011;8928;51.678;6.074;2022-08-11T00:21:47;5.73;;;2.33;;
17618;SDS011;8928;51.678;6.074;2022-08-11T00:24:36;7.37;;;2.40;;
17618;SDS011;8928;51.678;6.074;2022-08-11T00:27:30;4.37;;;2.37;;
17618;SDS011;8928;51.678;6.074;2022-08-11T00:30:19;5.30;;;2.40;;
17618;SDS011;8928;51.678;6.074;2022-08-11T00:33:07;5.40;;;2.50;;
17618;SDS011;8928;51.678;6.074;2022-08-11T00:35:55;6.07;;;2.30;;
17618;SDS011;8928;51.678;6.074;2022-08-11T00:38:46;6.47;;;2.50;;
17618;SDS011;8928;51.678;6.074;2022-08-11T00:41:38;7.43;;;2.60;;
17618;SDS011;8928;51.678;6.074;2022-08-11T00:44:36;5.33;;;2.30;;
17618;SDS011;8928;51.678;6.074;2022-08-11T00:47:42;4.63;;;2.33;;
17618;SDS011;8928;51.678;6.074;2022-08-11T00:50:43;6.63;;;2.63;;
17618;SDS011;8928;51.678;6.074;2022-08-11T00:53:37;5.10;;;2.40;;
17618;SDS011;8928;51.678;6.074;2022-08-11T01:00:13;9.00;;;2.63;;
17618;SDS011;8928;51.678;6.074;2022-08-11T01:03:08;5.87;;;3.20;;
17618;SDS011;8928;51.678;6.074;2022-08-11T01:06:20;6.27;;;2.50;;
17618;SDS011;8928;51.678;6.074;2022-08-11T01:09:42;8.27;;;2.53;;
17618;SDS011;8928;51.678;6.074;2022-08-11T01:12:48;8.20;;;2.60;;
17618;SDS011;8928;51.678;6.074;2022-08-11T01:29:51;6.27;;;2.87;;
17618;SDS011;8928;51.678;6.074;2022-08-11T01:33:03;6.97;;;2.80;;
17618;SDS011;8928;51.678;6.074;2022-08-11T01:43:09;6.50;;;2.67;;
17618;SDS011;8928;51.678;6.074;2022-08-11T01:46:25;5.93;;;3.00;;
17618;SDS011;8928;51.678;6.074;2022-08-11T01:49:20;7.97;;;3.00;;
17618;SDS011;8928;51.678;6.074;2022-08-11T01:52:16;7.43;;;3.00;;
17618;SDS011;8928;51.678;6.074;2022-08-11T01:55:08;5.37;;;2.90;;
17618;SDS011;8928;51.678;6.074;2022-08-11T01:58:04;6.57;;;3.07;;
17618;SDS011;8928;51.678;6.074;2022-08-11T02:01:01;6.60;;;3.10;;
17618;SDS011;8928;51.678;6.074;2022-08-11T02:03:57;6.77;;;3.00;;
17618;SDS011;8928;51.678;6.074;2022-08-11T02:06:57;9.87;;;3.10;;
17618;SDS011;8928;51.678;6.074;2022-08-11T02:09:55;6.93;;;3.10;;
17618;SDS011;8928;51.678;6.074;2022-08-11T02:13:13;5.13;;;2.93;;
17618;SDS011;8928;51.678;6.074;2022-08-11T02:16:09;10.83;;;2.97;;
17618;SDS011;8928;51.678;6.074;2022-08-11T02:19:07;5.27;;;3.30;;
17618;SDS011;8928;51.678;6.074;2022-08-11T02:22:25;6.23;;;2.87;;
17618;SDS011;8928;51.678;6.074;2022-08-11T02:25:36;4.60;;;3.10;;
17618;SDS011;8928;51.678;6.074;2022-08-11T02:28:26;6.90;;;3.20;;
17618;SDS011;8928;51.678;6.074;2022-08-11T02:31:24;7.20;;;3.67;;
17618;SDS011;8928;51.678;6.074;2022-08-11T02:34:44;5.63;;;3.10;;
17618;SDS011;8928;51.678;6.074;2022-08-11T02:37:41;10.50;;;3.50;;
17618;SDS011;8928;51.678;6.074;2022-08-11T02:40:45;5.83;;;3.00;;
17618;SDS011;8928;51.678;6.074;2022-08-11T02:43:38;8.70;;;3.20;;
17618;SDS011;8928;51.678;6.074;2022-08-11T02:46:35;4.60;;;3.10;;
17618;SDS011;8928;51.678;6.074;2022-08-11T02:49:36;10.97;;;3.47;;
17618;SDS011;8928;51.678;6.074;2022-08-11T02:52:40;7.93;;;3.03;;
17618;SDS011;8928;51.678;6.074;2022-08-11T02:55:37;5.93;;;3.10;;
17618;SDS011;8928;51.678;6.074;2022-08-11T02:58:35;7.27;;;3.40;;
17618;SDS011;8928;51.678;6.074;2022-08-11T03:01:50;5.50;;;3.30;;
17618;SDS011;8928;51.678;6.074;2022-08-11T03:04:47;7.30;;;3.43;;
17618;SDS011;8928;51.678;6.074;2022-08-11T03:07:47;9.07;;;3.27;;
17618;SDS011;8928;51.678;6.074;2022-08-11T03:10:50;5.30;;;3.60;;
17618;SDS011;8928;51.678;6.074;2022-08-11T03:13:58;6.63;;;3.40;;
17618;SDS011;8928;51.678;6.074;2022-08-11T03:17:20;5.70;;;3.80;;
17618;SDS011;8928;51.678;6.074;2022-08-11T03:20:27;5.07;;;3.50;;
17618;SDS011;8928;51.678;6.074;2022-08-11T03:23:22;6.13;;;3.80;;
17618;SDS011;8928;51.678;6.074;2022-08-11T03:26:21;7.13;;;3.97;;
17618;SDS011;8928;51.678;6.074;2022-08-11T03:29:15;5.23;;;3.63;;
17618;SDS011;8928;51.678;6.074;2022-08-11T03:32:09;5.67;;;3.60;;
17618;SDS011;8928;51.678;6.074;2022-08-11T03:35:07;8.27;;;3.80;;
17618;SDS011;8928;51.678;6.074;2022-08-11T03:37:58;6.67;;;3.43;;
17618;SDS011;8928;51.678;6.074;2022-08-11T03:40:56;6.67;;;3.93;;
17618;SDS011;8928;51.678;6.074;2022-08-11T03:47:44;8.80;;;4.20;;
17618;SDS011;8928;51.678;6.074;2022-08-11T03:50:54;5.97;;;4.03;;
17618;SDS011;8928;51.678;6.074;2022-08-11T03:53:58;10.67;;;4.40;;
17618;SDS011;8928;51.678;6.074;2022-08-11T04:00:28;9.53;;;4.43;;
17618;SDS011;8928;51.678;6.074;2022-08-11T04:07:23;7.40;;;4.20;;
17618;SDS011;8928;51.678;6.074;2022-08-11T04:10:44;6.90;;;4.33;;
17618;SDS011;8928;51.678;6.074;2022-08-11T04:14:05;7.77;;;4.73;;
17618;SDS011;8928;51.678;6.074;2022-08-11T04:20:50;10.37;;;4.50;;
17618;SDS011;8928;51.678;6.074;2022-08-11T04:23:55;8.07;;;5.10;;
17618;SDS011;8928;51.678;6.074;2022-08-11T04:30:34;12.73;;;4.90;;
17618;SDS011;8928;51.678;6.074;2022-08-11T04:33:40;8.10;;;4.80;;
17618;SDS011;8928;51.678;6.074;2022-08-11T04:36:46;8.80;;;5.23;;
17618;SDS011;8928;51.678;6.074;2022-08-11T04:47:13;10.03;;;4.80;;
17618;SDS011;8928;51.678;6.074;2022-08-11T04:50:33;7.70;;;4.63;;
17618;SDS011;8928;51.678;6.074;2022-08-11T04:53:57;10.80;;;4.40;;
17618;SDS011;8928;51.678;6.074;2022-08-11T04:57:08;7.87;;;4.57;;
17618;SDS011;8928;51.678;6.074;2022-08-11T05:00:22;8.67;;;4.97;;
17618;SDS011;8928;51.678;6.074;2022-08-11T05:03:44;9.47;;;4.90;;
17618;SDS011;8928;51.678;6.074;2022-08-11T05:07:26;8.57;;;5.00;;
17618;SDS011;8928;51.678;6.074;2022-08-11T05:10:53;8.30;;;4.87;;
17618;SDS011;8928;51.678;6.074;2022-08-11T05:13:49;14.10;;;5.37;;
17618;SDS011;8928;51.678;6.074;2022-08-11T05:17:05;13.47;;;5.07;;
17618;SDS011;8928;51.678;6.074;2022-08-11T05:20:14;15.13;;;6.07;;
17618;SDS011;8928;51.678;6.074;2022-08-11T05:23:19;11.47;;;6.10;;
17618;SDS011;8928;51.678;6.074;2022-08-11T05:26:34;11.30;;;5.80;;
17618;SDS011;8928;51.678;6.074;2022-08-11T05:29:46;10.67;;;5.67;;
17618;SDS011;8928;51.678;6.074;2022-08-11T05:33:07;9.20;;;6.00;;
17618;SDS011;8928;51.678;6.074;2022-08-11T05:36:15;10.73;;;5.93;;
17618;SDS011;8928;51.678;6.074;2022-08-11T05:39:10;15.23;;;6.03;;
17618;SDS011;8928;51.678;6.074;2022-08-11T05:42:21;15.23;;;6.07;;
17618;SDS011;8928;51.678;6.074;2022-08-11T05:45:27;11.77;;;5.67;;
17618;SDS011;8928;51.678;6.074;2022-08-11T05:48:32;11.43;;;6.00;;
17618;SDS011;8928;51.678;6.074;2022-08-11T05:51:38;11.93;;;6.40;;
17618;SDS011;8928;51.678;6.074;2022-08-11T05:54:45;15.40;;;6.07;;
17618;SDS011;8928;51.678;6.074;2022-08-11T05:57:54;11.47;;;5.63;;
17618;SDS011;8928;51.678;6.074;2022-08-11T06:00:44;10.60;;;5.73;;
17618;SDS011;8928;51.678;6.074;2022-08-11T06:03:32;12.77;;;5.70;;
17618;SDS011;8928;51.678;6.074;2022-08-11T06:06:51;8.73;;;5.60;;
17618;SDS011;8928;51.678;6.074;2022-08-11T06:09:45;12.77;;;5.30;;
17618;SDS011;8928;51.678;6.074;2022-08-11T06:12:34;16.00;;;4.90;;
17618;SDS011;8928;51.678;6.074;2022-08-11T06:15:26;9.53;;;5.03;;
17618;SDS011;8928;51.678;6.074;2022-08-11T06:18:15;12.93;;;5.10;;
17618;SDS011;8928;51.678;6.074;2022-08-11T06:21:07;14.53;;;4.90;;
17618;SDS011;8928;51.678;6.074;2022-08-11T06:23:56;8.73;;;4.73;;
17618;SDS011;8928;51.678;6.074;2022-08-11T06:26:49;9.00;;;4.60;;
17618;SDS011;8928;51.678;6.074;2022-08-11T06:29:44;9.73;;;4.23;;
17618;SDS011;8928;51.678;6.074;2022-08-11T06:32:34;11.17;;;4.70;;
17618;SDS011;8928;51.678;6.074;2022-08-11T06:35:24;10.97;;;4.17;;
17618;SDS011;8928;51.678;6.074;2022-08-11T06:38:26;11.73;;;4.50;;
17618;SDS011;8928;51.678;6.074;2022-08-11T06:41:24;10.13;;;4.30;;
17618;SDS011;8928;51.678;6.074;2022-08-11T06:44:23;12.35;;;4.00;;
17618;SDS011;8928;51.678;6.074;2022-08-11T06:47:16;11.60;;;4.18;;
17618;SDS011;8928;51.678;6.074;2022-08-11T06:50:06;10.52;;;4.20;;
17618;SDS011;8928;51.678;6.074;2022-08-11T06:53:11;9.48;;;3.58;;
17618;SDS011;8928;51.678;6.074;2022-08-11T06:56:03;12.27;;;3.53;;
17618;SDS011;8928;51.678;6.074;2022-08-11T06:59:09;8.88;;;3.65;;
17618;SDS011;8928;51.678;6.074;2022-08-11T07:02:16;8.73;;;3.30;;
17618;SDS011;8928;51.678;6.074;2022-08-11T07:05:09;7.13;;;3.35;;
17618;SDS011;8928;51.678;6.074;2022-08-11T07:08:10;4.55;;;2.95;;
17618;SDS011;8928;51.678;6.074;2022-08-11T07:11:35;8.75;;;3.28;;
17618;SDS011;8928;51.678;6.074;2022-08-11T07:15:03;5.07;;;2.92;;
17618;SDS011;8928;51.678;6.074;2022-08-11T07:18:16;7.90;;;2.95;;
17618;SDS011;8928;51.678;6.074;2022-08-11T07:21:28;6.60;;;2.65;;
17618;SDS011;8928;51.678;6.074;2022-08-11T07:24:35;6.10;;;2.75;;
17618;SDS011;8928;51.678;6.074;2022-08-11T07:27:43;13.02;;;2.70;;
17618;SDS011;8928;51.678;6.074;2022-08-11T07:30:50;11.15;;;2.85;;
17618;SDS011;8928;51.678;6.074;2022-08-11T07:33:43;7.07;;;2.50;;
17618;SDS011;8928;51.678;6.074;2022-08-11T07:36:37;9.85;;;2.70;;
17618;SDS011;8928;51.678;6.074;2022-08-11T07:39:27;8.85;;;2.78;;
17618;SDS011;8928;51.678;6.074;2022-08-11T07:42:20;7.22;;;2.72;;
17618;SDS011;8928;51.678;6.074;2022-08-11T07:45:09;6.70;;;3.00;;
17618;SDS011;8928;51.678;6.074;2022-08-11T07:48:14;9.93;;;2.53;;
17618;SDS011;8928;51.678;6.074;2022-08-11T07:51:20;12.95;;;2.60;;
17618;SDS011;8928;51.678;6.074;2022-08-11T07:54:27;6.47;;;2.88;;
17618;SDS011;8928;51.678;6.074;2022-08-11T07:57:15;5.28;;;2.70;;
17618;SDS011;8928;51.678;6.074;2022-08-11T08:00:20;4.85;;;2.60;;
17618;SDS011;8928;51.678;6.074;2022-08-11T08:03:25;6.88;;;2.65;;
17618;SDS011;8928;51.678;6.074;2022-08-11T08:06:31;5.20;;;2.58;;
17618;SDS011;8928;51.678;6.074;2022-08-11T08:09:38;10.35;;;2.85;;
17618;SDS011;8928;51.678;6.074;2022-08-11T08:12:45;7.65;;;2.63;;
17618;SDS011;8928;51.678;6.074;2022-08-11T08:15:50;9.23;;;2.72;;
17618;SDS011;8928;51.678;6.074;2022-08-11T08:18:56;7.72;;;2.70;;
17618;SDS011;8928;51.678;6.074;2022-08-11T08:21:43;10.48;;;2.90;;
17618;SDS011;8928;51.678;6.074;2022-08-11T08:24:32;7.53;;;2.50;;
17618;SDS011;8928;51.678;6.074;2022-08-11T08:27:21;6.05;;;2.83;;
17618;SDS011;8928;51.678;6.074;2022-08-11T08:30:10;5.38;;;2.58;;
17618;SDS011;8928;51.678;6.074;2022-08-11T08:33:18;7.70;;;2.80;;
17618;SDS011;8928;51.678;6.074;2022-08-11T08:36:06;13.05;;;2.80;;
17618;SDS011;8928;51.678;6.074;2022-08-11T08:38:59;6.68;;;2.38;;
17618;SDS011;8928;51.678;6.074;2022-08-11T08:41:46;6.57;;;2.85;;
17618;SDS011;8928;51.678;6.074;2022-08-11T08:44:44;7.47;;;2.67;;
17618;SDS011;8928;51.678;6.074;2022-08-11T08:47:34;12.60;;;3.00;;
17618;SDS011;8928;51.678;6.074;2022-08-11T08:50:22;6.63;;;2.88;;
17618;SDS011;8928;51.678;6.074;2022-08-11T08:53:34;9.15;;;2.95;;
17618;SDS011;8928;51.678;6.074;2022-08-11T08:56:24;5.68;;;2.63;;
17618;SDS011;8928;51.678;6.074;2022-08-11T08:59:13;10.07;;;2.72;;
17618;SDS011;8928;51.678;6.074;2022-08-11T09:02:04;8.15;;;2.80;;
17618;SDS011;8928;51.678;6.074;2022-08-11T09:04:52;5.32;;;2.80;;
17618;SDS011;8928;51.678;6.074;2022-08-11T09:07:39;9.55;;;2.90;;
17618;SDS011;8928;51.678;6.074;2022-08-11T09:10:27;5.83;;;2.80;;
17618;SDS011;8928;51.678;6.074;2022-08-11T09:13:15;7.35;;;2.90;;
17618;SDS011;8928;51.678;6.074;2022-08-11T09:16:03;7.75;;;2.65;;
17618;SDS011;8928;51.678;6.074;2022-08-11T09:18:53;7.80;;;3.00;;
17618;SDS011;8928;51.678;6.074;2022-08-11T09:21:41;10.52;;;2.72;;
17618;SDS011;8928;51.678;6.074;2022-08-11T09:24:29;6.40;;;2.72;;
17618;SDS011;8928;51.678;6.074;2022-08-11T09:27:30;5.22;;;2.72;;
17618;SDS011;8928;51.678;6.074;2022-08-11T09:30:18;9.52;;;2.95;;
17618;SDS011;8928;51.678;6.074;2022-08-11T09:33:06;8.95;;;3.00;;
17618;SDS011;8928;51.678;6.074;2022-08-11T09:35:57;9.43;;;2.95;;
17618;SDS011;8928;51.678;6.074;2022-08-11T09:39:05;6.68;;;2.90;;
17618;SDS011;8928;51.678;6.074;2022-08-11T09:42:10;12.02;;;3.15;;
17618;SDS011;8928;51.678;6.074;2022-08-11T09:44:58;6.97;;;2.80;;
17618;SDS011;8928;51.678;6.074;2022-08-11T09:47:44;12.75;;;2.97;;
17618;SDS011;8928;51.678;6.074;2022-08-11T09:50:32;8.45;;;2.80;;
17618;SDS011;8928;51.678;6.074;2022-08-11T09:53:24;6.10;;;2.83;;
17618;SDS011;8928;51.678;6.074;2022-08-11T09:56:13;6.68;;;2.70;;
17618;SDS011;8928;51.678;6.074;2022-08-11T09:59:21;9.48;;;3.08;;
17618;SDS011;8928;51.678;6.074;2022-08-11T10:02:08;5.93;;;2.80;;
17618;SDS011;8928;51.678;6.074;2022-08-11T10:04:56;6.00;;;2.80;;
17618;SDS011;8928;51.678;6.074;2022-08-11T10:08:04;7.38;;;3.10;;
17618;SDS011;8928;51.678;6.074;2022-08-11T10:10:54;8.77;;;2.95;;
17618;SDS011;8928;51.678;6.074;2022-08-11T10:13:43;8.75;;;2.58;;
17618;SDS011;8928;51.678;6.074;2022-08-11T10:16:48;6.28;;;2.50;;
17618;SDS011;8928;51.678;6.074;2022-08-11T10:19:37;10.48;;;2.63;;
17618;SDS011;8928;51.678;6.074;2022-08-11T10:22:26;7.40;;;2.60;;
17618;SDS011;8928;51.678;6.074;2022-08-11T10:25:31;8.60;;;2.75;;
17618;SDS011;8928;51.678;6.074;2022-08-11T10:28:37;12.63;;;2.70;;
17618;SDS011;8928;51.678;6.074;2022-08-11T10:31:25;11.45;;;2.65;;
17618;SDS011;8928;51.678;6.074;2022-08-11T10:34:29;5.90;;;2.80;;
17618;SDS011;8928;51.678;6.074;2022-08-11T10:37:18;5.85;;;2.70;;
17618;SDS011;8928;51.678;6.074;2022-08-11T10:40:07;5.60;;;2.60;;
17618;SDS011;8928;51.678;6.074;2022-08-11T10:43:00;3.28;;;2.55;;
17618;SDS011;8928;51.678;6.074;2022-08-11T10:45:49;4.72;;;2.70;;
17618;SDS011;8928;51.678;6.074;2022-08-11T10:48:54;6.68;;;2.58;;
17618;SDS011;8928;51.678;6.074;2022-08-11T10:51:42;7.93;;;2.35;;
17618;SDS011;8928;51.678;6.074;2022-08-11T10:54:47;7.10;;;2.45;;
17618;SDS011;8928;51.678;6.074;2022-08-11T10:57:53;4.50;;;2.53;;
17618;SDS011;8928;51.678;6.074;2022-08-11T11:01:00;8.90;;;2.60;;
17618;SDS011;8928;51.678;6.074;2022-08-11T11:03:48;5.38;;;2.63;;
17618;SDS011;8928;51.678;6.074;2022-08-11T11:06:39;7.47;;;2.78;;
17618;SDS011;8928;51.678;6.074;2022-08-11T11:09:37;5.38;;;2.50;;
17618;SDS011;8928;51.678;6.074;2022-08-11T11:12:29;4.38;;;2.30;;
17618;SDS011;8928;51.678;6.074;2022-08-11T11:15:36;6.95;;;2.55;;
17618;SDS011;8928;51.678;6.074;2022-08-11T11:18:48;9.93;;;2.45;;
17618;SDS011;8928;51.678;6.074;2022-08-11T11:21:36;3.53;;;2.40;;
17618;SDS011;8928;51.678;6.074;2022-08-11T11:24:29;5.35;;;2.50;;
17618;SDS011;8928;51.678;6.074;2022-08-11T11:27:27;7.05;;;2.20;;
17618;SDS011;8928;51.678;6.074;2022-08-11T11:30:19;5.38;;;2.20;;
17618;SDS011;8928;51.678;6.074;2022-08-11T11:33:10;4.05;;;2.40;;
17618;SDS011;8928;51.678;6.074;2022-08-11T11:36:07;7.53;;;2.63;;
17618;SDS011;8928;51.678;6.074;2022-08-11T11:39:00;6.38;;;2.33;;
17618;SDS011;8928;51.678;6.074;2022-08-11T11:41:48;9.05;;;2.60;;
17618;SDS011;8928;51.678;6.074;2022-08-11T11:44:37;8.68;;;2.40;;
17618;SDS011;8928;51.678;6.074;2022-08-11T11:47:25;7.00;;;2.42;;
17618;SDS011;8928;51.678;6.074;2022-08-11T11:50:12;6.15;;;2.80;;
17618;SDS011;8928;51.678;6.074;2022-08-11T11:53:02;6.25;;;2.50;;
17618;SDS011;8928;51.678;6.074;2022-08-11T11:55:52;7.00;;;2.58;;
17618;SDS011;8928;51.678;6.074;2022-08-11T11:58:40;4.57;;;2.47;;
17618;SDS011;8928;51.678;6.074;2022-08-11T12:01:45;5.70;;;2.70;;
17618;SDS011;8928;51.678;6.074;2022-08-11T12:04:33;4.57;;;2.40;;
17618;SDS011;8928;51.678;6.074;2022-08-11T12:07:22;7.95;;;2.67;;
17618;SDS011;8928;51.678;6.074;2022-08-11T12:10:28;6.47;;;2.50;;
17618;SDS011;8928;51.678;6.074;2022-08-11T12:13:16;8.20;;;2.63;;
17618;SDS011;8928;51.678;6.074;2022-08-11T12:16:22;8.57;;;2.50;;
17618;SDS011;8928;51.678;6.074;2022-08-11T12:19:10;4.20;;;2.53;;
17618;SDS011;8928;51.678;6.074;2022-08-11T12:21:59;10.82;;;2.60;;
17618;SDS011;8928;51.678;6.074;2022-08-11T12:25:04;8.38;;;2.22;;
17618;SDS011;8928;51.678;6.074;2022-08-11T12:28:11;5.13;;;2.60;;
17618;SDS011;8928;51.678;6.074;2022-08-11T12:30:58;5.95;;;2.40;;
17618;SDS011;8928;51.678;6.074;2022-08-11T12:33:46;9.07;;;2.45;;
17618;SDS011;8928;51.678;6.074;2022-08-11T12:36:35;3.45;;;2.40;;
17618;SDS011;8928;51.678;6.074;2022-08-11T12:39:24;7.70;;;2.47;;
17618;SDS011;8928;51.678;6.074;2022-08-11T12:42:27;5.20;;;2.50;;
17618;SDS011;8928;51.678;6.074;2022-08-11T12:45:37;5.25;;;2.30;;
17618;SDS011;8928;51.678;6.074;2022-08-11T12:48:27;6.55;;;2.33;;
17618;SDS011;8928;51.678;6.074;2022-08-11T12:51:40;3.88;;;2.00;;
17618;SDS011;8928;51.678;6.074;2022-08-11T12:54:48;8.45;;;2.30;;
17618;SDS011;8928;51.678;6.074;2022-08-11T12:57:44;7.25;;;2.20;;
17618;SDS011;8928;51.678;6.074;2022-08-11T13:00:51;4.95;;;2.30;;
17618;SDS011;8928;51.678;6.074;2022-08-11T13:03:56;6.10;;;2.30;;
17618;SDS011;8928;51.678;6.074;2022-08-11T13:07:01;5.07;;;2.30;;
17618;SDS011;8928;51.678;6.074;2022-08-11T13:09:48;11.27;;;2.28;;
17618;SDS011;8928;51.678;6.074;2022-08-11T13:12:36;10.57;;;2.42;;
17618;SDS011;8928;51.678;6.074;2022-08-11T13:15:32;9.20;;;2.50;;
17618;SDS011;8928;51.678;6.074;2022-08-11T13:18:22;2.95;;;2.20;;
17618;SDS011;8928;51.678;6.074;2022-08-11T13:21:09;6.45;;;2.30;;
17618;SDS011;8928;51.678;6.074;2022-08-11T13:23:58;7.00;;;2.20;;
17618;SDS011;8928;51.678;6.074;2022-08-11T13:26:46;5.72;;;2.25;;
17618;SDS011;8928;51.678;6.074;2022-08-11T13:29:35;6.43;;;2.20;;
17618;SDS011;8928;51.678;6.074;2022-08-11T13:32:24;8.40;;;2.08;;
17618;SDS011;8928;51.678;6.074;2022-08-11T13:35:15;6.90;;;2.10;;
17618;SDS011;8928;51.678;6.074;2022-08-11T13:38:03;6.05;;;2.50;;
17618;SDS011;8928;51.678;6.074;2022-08-11T13:40:51;9.40;;;2.33;;
17618;SDS011;8928;51.678;6.074;2022-08-11T13:43:41;5.05;;;2.35;;
17618;SDS011;8928;51.678;6.074;2022-08-11T13:46:29;10.68;;;2.50;;
17618;SDS011;8928;51.678;6.074;2022-08-11T13:49:18;6.13;;;2.53;;
17618;SDS011;8928;51.678;6.074;2022-08-11T13:52:11;4.90;;;2.28;;
17618;SDS011;8928;51.678;6.074;2022-08-11T13:55:00;9.88;;;2.50;;
17618;SDS011;8928;51.678;6.074;2022-08-11T13:57:49;3.63;;;2.30;;
17618;SDS011;8928;51.678;6.074;2022-08-11T14:00:38;10.20;;;2.30;;
17618;SDS011;8928;51.678;6.074;2022-08-11T14:03:26;8.60;;;2.40;;
17618;SDS011;8928;51.678;6.074;2022-08-11T14:06:15;8.35;;;2.58;;
17618;SDS011;8928;51.678;6.074;2022-08-11T14:09:06;7.30;;;2.83;;
17618;SDS011;8928;51.678;6.074;2022-08-11T14:11:56;6.93;;;2.80;;
17618;SDS011;8928;51.678;6.074;2022-08-11T14:15:04;6.88;;;2.47;;
17618;SDS011;8928;51.678;6.074;2022-08-11T14:17:57;7.30;;;2.75;;
17618;SDS011;8928;51.678;6.074;2022-08-11T14:20:49;8.27;;;2.55;;
17618;SDS011;8928;51.678;6.074;2022-08-11T14:23:56;6.70;;;2.67;;
17618;SDS011;8928;51.678;6.074;2022-08-11T14:26:45;4.05;;;2.60;;
17618;SDS011;8928;51.678;6.074;2022-08-11T14:29:35;9.77;;;2.78;;
17618;SDS011;8928;51.678;6.074;2022-08-11T14:32:24;7.32;;;2.70;;
17618;SDS011;8928;51.678;6.074;2022-08-11T14:35:11;5.13;;;2.63;;
17618;SDS011;8928;51.678;6.074;2022-08-11T14:37:59;4.00;;;2.50;;
17618;SDS011;8928;51.678;6.074;2022-08-11T14:40:47;10.93;;;2.90;;
17618;SDS011;8928;51.678;6.074;2022-08-11T14:43:54;8.73;;;3.10;;
17618;SDS011;8928;51.678;6.074;2022-08-11T14:47:00;8.02;;;2.90;;
17618;SDS011;8928;51.678;6.074;2022-08-11T14:49:52;5.05;;;2.60;;
17618;SDS011;8928;51.678;6.074;2022-08-11T14:52:42;5.07;;;2.53;;
17618;SDS011;8928;51.678;6.074;2022-08-11T14:55:34;6.35;;;2.47;;
17618;SDS011;8928;51.678;6.074;2022-08-11T14:58:40;5.32;;;2.70;;
17618;SDS011;8928;51.678;6.074;2022-08-11T15:01:29;4.07;;;2.50;;
17618;SDS011;8928;51.678;6.074;2022-08-11T15:04:34;3.58;;;2.50;;
17618;SDS011;8928;51.678;6.074;2022-08-11T15:07:22;4.75;;;2.50;;
17618;SDS011;8928;51.678;6.074;2022-08-11T15:10:15;4.43;;;2.70;;
17618;SDS011;8928;51.678;6.074;2022-08-11T15:13:03;9.57;;;2.55;;
17618;SDS011;8928;51.678;6.074;2022-08-11T15:15:51;3.92;;;2.55;;
17618;SDS011;8928;51.678;6.074;2022-08-11T15:18:57;4.20;;;2.60;;
17618;SDS011;8928;51.678;6.074;2022-08-11T15:21:45;5.78;;;2.90;;
17618;SDS011;8928;51.678;6.074;2022-08-11T15:24:50;8.32;;;2.90;;
17618;SDS011;8928;51.678;6.074;2022-08-11T15:27:38;5.82;;;2.78;;
17618;SDS011;8928;51.678;6.074;2022-08-11T15:30:44;5.90;;;2.85;;
17618;SDS011;8928;51.678;6.074;2022-08-11T15:33:51;5.07;;;2.72;;
17618;SDS011;8928;51.678;6.074;2022-08-11T15:37:00;8.40;;;2.70;;
17618;SDS011;8928;51.678;6.074;2022-08-11T15:40:10;4.32;;;2.80;;
17618;SDS011;8928;51.678;6.074;2022-08-11T15:43:21;5.05;;;2.70;;
17618;SDS011;8928;51.678;6.074;2022-08-11T15:46:29;9.27;;;2.60;;
17618;SDS011;8928;51.678;6.074;2022-08-11T15:49:21;7.20;;;2.75;;
17618;SDS011;8928;51.678;6.074;2022-08-11T15:52:14;4.78;;;2.45;;
17618;SDS011;8928;51.678;6.074;2022-08-11T15:55:05;8.25;;;2.70;;
17618;SDS011;8928;51.678;6.074;2022-08-11T15:57:53;6.05;;;2.53;;
17618;SDS011;8928;51.678;6.074;2022-08-11T16:01:00;6.07;;;2.70;;
17618;SDS011;8928;51.678;6.074;2022-08-11T16:04:06;8.65;;;3.35;;
17618;SDS011;8928;51.678;6.074;2022-08-11T16:06:59;5.57;;;2.78;;
17618;SDS011;8928;51.678;6.074;2022-08-11T16:09:51;3.95;;;2.60;;
17618;SDS011;8928;51.678;6.074;2022-08-11T16:12:41;8.65;;;2.88;;
17618;SDS011;8928;51.678;6.074;2022-08-11T16:16:00;7.65;;;2.90;;
17618;SDS011;8928;51.678;6.074;2022-08-11T16:18:59;6.75;;;2.80;;
17618;SDS011;8928;51.678;6.074;2022-08-11T16:21:49;5.43;;;3.00;;
17618;SDS011;8928;51.678;6.074;2022-08-11T16:24:39;3.40;;;2.80;;
17618;SDS011;8928;51.678;6.074;2022-08-11T16:27:32;3.95;;;2.50;;
17618;SDS011;8928;51.678;6.074;2022-08-11T16:30:22;7.63;;;2.65;;
17618;SDS011;8928;51.678;6.074;2022-08-11T16:33:10;5.57;;;2.78;;
17618;SDS011;8928;51.678;6.074;2022-08-11T16:35:58;8.48;;;3.08;;
17618;SDS011;8928;51.678;6.074;2022-08-11T16:39:03;6.13;;;2.90;;
17618;SDS011;8928;51.678;6.074;2022-08-11T16:41:52;5.72;;;2.88;;
17618;SDS011;8928;51.678;6.074;2022-08-11T16:44:57;4.10;;;2.70;;
17618;SDS011;8928;51.678;6.074;2022-08-11T16:48:06;8.60;;;2.53;;
17618;SDS011;8928;51.678;6.074;2022-08-11T16:50:54;7.25;;;2.60;;
17618;SDS011;8928;51.678;6.074;2022-08-11T16:53:44;3.70;;;2.40;;
17618;SDS011;8928;51.678;6.074;2022-08-11T16:56:33;6.90;;;2.90;;
17618;SDS011;8928;51.678;6.074;2022-08-11T16:59:28;9.05;;;2.65;;
17618;SDS011;8928;51.678;6.074;2022-08-11T17:02:20;7.85;;;2.55;;
17618;SDS011;8928;51.678;6.074;2022-08-11T17:05:24;6.35;;;2.60;;
17618;SDS011;8928;51.678;6.074;2022-08-11T17:08:29;5.07;;;2.60;;
17618;SDS011;8928;51.678;6.074;2022-08-11T17:11:38;3.22;;;2.30;;
17618;SDS011;8928;51.678;6.074;2022-08-11T17:14:48;12.13;;;2.65;;
17618;SDS011;8928;51.678;6.074;2022-08-11T17:17:38;7.63;;;2.60;;
17618;SDS011;8928;51.678;6.074;2022-08-11T17:20:26;7.07;;;2.42;;
17618;SDS011;8928;51.678;6.074;2022-08-11T17:23:15;6.13;;;2.42;;
17618;SDS011;8928;51.678;6.074;2022-08-11T17:26:21;6.95;;;2.40;;
17618;SDS011;8928;51.678;6.074;2022-08-11T17:29:10;2.92;;;2.30;;
17618;SDS011;8928;51.678;6.074;2022-08-11T17:31:58;6.15;;;2.50;;
17618;SDS011;8928;51.678;6.074;2022-08-11T17:35:07;3.60;;;2.28;;
17618;SDS011;8928;51.678;6.074;2022-08-11T17:38:16;6.38;;;2.40;;
17618;SDS011;8928;51.678;6.074;2022-08-11T17:41:06;4.82;;;2.20;;
17618;SDS011;8928;51.678;6.074;2022-08-11T17:44:12;8.60;;;2.30;;
17618;SDS011;8928;51.678;6.074;2022-08-11T17:47:17;7.88;;;2.30;;
17618;SDS011;8928;51.678;6.074;2022-08-11T17:50:24;17.05;;;2.50;;
17618;SDS011;8928;51.678;6.074;2022-08-11T17:53:12;9.93;;;2.72;;
17618;SDS011;8928;51.678;6.074;2022-08-11T17:56:18;6.63;;;2.50;;
17618;SDS011;8928;51.678;6.074;2022-08-11T17:59:24;11.07;;;2.50;;
17618;SDS011;8928;51.678;6.074;2022-08-11T18:02:29;30.30;;;3.70;;
17618;SDS011;8928;51.678;6.074;2022-08-11T18:05:40;23.98;;;3.75;;
17618;SDS011;8928;51.678;6.074;2022-08-11T18:08:29;26.63;;;3.70;;
17618;SDS011;8928;51.678;6.074;2022-08-11T18:11:35;30.10;;;3.33;;
17618;SDS011;8928;51.678;6.074;2022-08-11T18:14:43;28.67;;;3.10;;
17618;SDS011;8928;51.678;6.074;2022-08-11T18:17:49;22.63;;;3.03;;
17618;SDS011;8928;51.678;6.074;2022-08-11T18:20:55;24.35;;;3.58;;
17618;SDS011;8928;51.678;6.074;2022-08-11T18:24:02;8.80;;;3.42;;
17618;SDS011;8928;51.678;6.074;2022-08-11T18:27:10;14.43;;;3.33;;
17618;SDS011;8928;51.678;6.074;2022-08-11T18:30:18;7.40;;;3.10;;
17618;SDS011;8928;51.678;6.074;2022-08-11T18:33:24;7.13;;;2.80;;
17618;SDS011;8928;51.678;6.074;2022-08-11T18:36:35;8.60;;;2.55;;
17618;SDS011;8928;51.678;6.074;2022-08-11T18:39:44;10.32;;;2.78;;
17618;SDS011;8928;51.678;6.074;2022-08-11T18:42:52;10.90;;;2.50;;
17618;SDS011;8928;51.678;6.074;2022-08-11T18:46:01;6.07;;;2.40;;
17618;SDS011;8928;51.678;6.074;2022-08-11T18:49:11;7.80;;;2.80;;
17618;SDS011;8928;51.678;6.074;2022-08-11T18:52:19;7.07;;;2.50;;
17618;SDS011;8928;51.678;6.074;2022-08-11T18:55:25;4.43;;;2.33;;
17618;SDS011;8928;51.678;6.074;2022-08-11T18:58:33;3.50;;;2.35;;